Time;durP1;ratioP1;P1;durP2;ratioP2;P2;SDS_P1;SDS_P2;PMS_P1;PMS_P2;Temp;Humidity;BMP_temperature;BMP_pressure;BME280_temperature;BME280_humidity;BME280_pressure;Samples;Min_cycle;Max_cycle;Signal;HPM_P1;HPM_P2
2024/01/10 00:02:22;;;;;;;1.60;1.50;;;;;;;-0.81;100.00;-23792.19;5030782;28;20173;-66
2024/01/10 00:05:14;;;;;;;1.53;1.43;;;;;;;-0.78;100.00;-23793.03;5030760;28;20173;-68
2024/01/10 00:07:56;;;;;;;1.20;1.20;;;;;;;-0.70;100.00;-23795.34;5030729;28;20192;-69
2024/01/10 00:11:19;;;;;;;2.03;1.73;;;;;;;-0.86;100.00;-23790.59;5029454;28;20239;-66
2024/01/10 00:13:46;;;;;;;1.00;1.00;;;;;;;-0.84;100.00;-23791.19;5029264;28;20187;-66
2024/01/10 00:16:15;;;;;;;1.63;1.53;;;;;;;-0.71;100.00;-23794.91;5030955;28;20670;-70
2024/01/10 00:18:41;;;;;;;1.10;1.10;;;;;;;-0.70;100.00;-23795.34;5031085;28;20625;-69
2024/01/10 00:21:07;;;;;;;1.47;1.37;;;;;;;-0.84;100.00;-23791.19;5031119;28;20178;-67
2024/01/10 00:23:33;;;;;;;1.60;1.50;;;;;;;-0.79;100.00;-23792.63;5030716;28;20198;-69
2024/01/10 00:25:59;;;;;;;1.40;1.30;;;;;;;-0.83;100.00;-23791.47;5030119;28;20242;-69
2024/01/10 00:28:25;;;;;;;2.00;1.90;;;;;;;-0.91;100.00;-23789.47;5030744;28;20191;-66
2024/01/10 00:30:51;;;;;;;1.20;1.20;;;;;;;-0.79;100.00;-23792.63;5029989;28;20691;-65
2024/01/10 00:33:17;;;;;;;1.20;1.20;;;;;;;-0.74;100.00;-23794.06;5029978;28;20237;-66
2024/01/10 00:35:43;;;;;;;1.87;1.77;;;;;;;-0.67;100.00;-23796.06;5030488;28;20169;-67
2024/01/10 00:38:09;;;;;;;1.20;1.20;;;;;;;-0.73;100.00;-23794.47;5030201;28;20257;-67
2024/01/10 00:40:34;;;;;;;1.13;1.13;;;;;;;-1.01;100.00;-23786.59;5030465;28;20303;-67
2024/01/10 00:43:01;;;;;;;2.03;1.77;;;;;;;-0.94;100.00;-23788.59;5030399;28;20738;-67
2024/01/10 00:45:26;;;;;;;5.53;2.03;;;;;;;-1.12;100.00;-23783.28;5030069;28;20173;-64
2024/01/10 00:47:52;;;;;;;1.77;1.67;;;;;;;-1.00;100.00;-23786.72;5030351;28;20322;-69
2024/01/10 00:50:17;;;;;;;1.53;1.43;;;;;;;-0.76;100.00;-23793.47;5029788;28;20192;-70
2024/01/10 00:52:44;;;;;;;1.17;1.17;;;;;;;-0.76;100.00;-23793.47;5030365;28;20578;-68
2024/01/10 00:55:10;;;;;;;1.40;1.33;;;;;;;-0.97;100.00;-23787.59;5030398;28;20267;-66
2024/01/10 00:57:37;;;;;;;1.33;1.30;;;;;;;-0.86;100.00;-23790.59;5030106;28;20567;-67
2024/01/10 01:00:06;;;;;;;1.77;1.67;;;;;;;-0.89;100.00;-23789.88;5030194;28;20626;-63
2024/01/10 01:02:32;;;;;;;2.07;1.97;;;;;;;-0.81;100.00;-23792.19;5035621;28;20180;-67
2024/01/10 01:04:57;;;;;;;1.10;1.10;;;;;;;-0.82;100.00;-23791.91;5030969;28;20585;-67
2024/01/10 01:07:22;;;;;;;1.40;1.30;;;;;;;-0.84;100.00;-23791.19;5033630;28;20220;-66
2024/01/10 01:09:48;;;;;;;2.07;1.93;;;;;;;-0.95;100.00;-23788.16;5033344;28;20208;-63
2024/01/10 01:12:14;;;;;;;1.50;1.40;;;;;;;-0.70;100.00;-23795.34;5033578;28;20267;-64
2024/01/10 01:14:39;;;;;;;2.00;1.90;;;;;;;-0.67;100.00;-23796.19;5033433;28;20172;-64
2024/01/10 01:17:04;;;;;;;1.03;1.03;;;;;;;-0.70;100.00;-23795.19;5033293;28;20184;-65
2024/01/10 01:19:30;;;;;;;1.60;1.50;;;;;;;-1.04;100.00;-23785.59;5033400;28;20207;-66
2024/01/10 01:21:55;;;;;;;1.90;1.80;;;;;;;-0.76;100.00;-23793.47;5033025;28;20185;-65
2024/01/10 01:24:20;;;;;;;1.77;1.67;;;;;;;-0.68;100.00;-23795.75;5033178;28;20179;-66
2024/01/10 01:26:46;;;;;;;1.30;1.30;;;;;;;-0.88;100.00;-23790.19;5033241;28;20233;-63
2024/01/10 01:29:11;;;;;;;1.77;1.67;;;;;;;-0.61;100.00;-23797.78;5033015;28;20266;-65
2024/01/10 01:31:38;;;;;;;1.43;1.33;;;;;;;-0.62;100.00;-23797.50;5032890;28;20252;-65
2024/01/10 01:34:03;;;;;;;1.80;1.70;;;;;;;-0.78;100.00;-23792.91;5033321;28;20216;-65
2024/01/10 01:36:28;;;;;;;5.10;2.10;;;;;;;-0.47;100.00;-23801.94;5032916;28;20184;-67
2024/01/10 01:38:54;;;;;;;1.40;1.30;;;;;;;-0.83;100.00;-23791.59;5033328;28;20600;-63
2024/01/10 01:41:19;;;;;;;1.73;1.50;;;;;;;-0.88;100.00;-23790.03;5033181;28;20188;-66
2024/01/10 01:43:45;;;;;;;3.20;2.13;;;;;;;-0.80;100.00;-23792.47;5032944;28;20248;-66
2024/01/10 01:46:11;;;;;;;1.50;1.40;;;;;;;-0.85;100.00;-23791.03;5032945;28;20219;-64
2024/01/10 01:48:37;;;;;;;1.70;1.47;;;;;;;-0.90;100.00;-23789.59;5031381;28;20181;-68
2024/01/10 01:51:06;;;;;;;1.13;1.13;;;;;;;-0.89;100.00;-23789.88;5032570;28;20660;-66
2024/01/10 01:53:35;;;;;;;2.37;2.17;;;;;;;-0.69;100.00;-23795.47;5032854;28;20655;-67
2024/01/10 01:56:06;;;;;;;2.03;1.93;;;;;;;-0.52;100.00;-23800.50;5032791;28;20181;-66
2024/01/10 01:58:32;;;;;;;1.50;1.40;;;;;;;-0.49;100.00;-23801.22;5031861;28;20172;-63
2024/01/10 02:00:58;;;;;;;2.10;1.97;;;;;;;-0.79;100.00;-23792.75;5032358;28;20679;-68
2024/01/10 02:03:24;;;;;;;1.60;1.50;;;;;;;-0.52;100.00;-23800.34;5032432;28;20178;-64
2024/01/10 02:05:50;;;;;;;1.70;1.60;;;;;;;-0.62;100.00;-23797.63;5038587;28;20193;-67
2024/01/10 02:08:15;;;;;;;1.60;1.50;;;;;;;-0.73;100.00;-23794.34;5032982;28;20178;-64
2024/01/10 02:10:41;;;;;;;1.30;1.30;;;;;;;-0.84;100.00;-23791.31;5032673;28;20239;-66
2024/01/10 02:13:08;;;;;;;1.57;1.47;;;;;;;-0.52;100.00;-23800.34;5032766;28;20217;-66
2024/01/10 02:15:35;;;;;;;1.43;1.40;;;;;;;-0.48;100.00;-23801.50;5032429;28;20201;-68
2024/01/10 02:18:01;;;;;;;1.90;1.80;;;;;;;-0.55;100.00;-23799.50;5032006;28;20203;-64
2024/01/10 02:20:26;;;;;;;3.40;2.73;;;;;;;-0.74;100.00;-23794.06;5030734;28;20205;-66
2024/01/10 02:22:51;;;;;;;3.80;1.80;;;;;;;-0.48;100.00;-23801.50;5032196;28;20227;-67
2024/01/10 02:25:17;;;;;;;1.33;1.30;;;;;;;-0.59;100.00;-23798.34;5032128;28;20625;-63
2024/01/10 02:27:43;;;;;;;1.10;1.10;;;;;;;-0.71;100.00;-23794.91;5032032;28;20174;-63
2024/01/10 02:30:09;;;;;;;1.93;1.83;;;;;;;-0.83;100.00;-23791.47;5031683;28;20271;-65
2024/01/10 02:32:35;;;;;;;1.20;1.20;;;;;;;-0.75;100.00;-23793.75;5031780;28;20238;-65
2024/01/10 02:35:00;;;;;;;1.60;1.50;;;;;;;-0.85;100.00;-23790.91;5031839;28;20182;-64
2024/01/10 02:37:26;;;;;;;1.30;1.27;;;;;;;-1.11;100.00;-23783.72;5031852;28;20671;-67
2024/01/10 02:39:51;;;;;;;1.20;1.20;;;;;;;-0.91;100.00;-23789.47;5031764;28;20234;-65
2024/01/10 02:42:17;;;;;;;1.13;1.13;;;;;;;-0.64;100.00;-23796.91;5031874;28;20198;-63
2024/01/10 02:44:43;;;;;;;1.83;1.73;;;;;;;-0.64;100.00;-23796.91;5030269;28;20176;-65
2024/01/10 02:47:09;;;;;;;1.10;1.10;;;;;;;-0.81;100.00;-23792.03;5030488;28;20605;-64
2024/01/10 02:49:34;;;;;;;1.60;1.50;;;;;;;-0.70;100.00;-23795.34;5031561;28;20342;-65
2024/01/10 02:52:00;;;;;;;1.47;1.43;;;;;;;-0.86;100.00;-23790.75;5030565;28;20184;-62
2024/01/10 02:54:25;;;;;;;1.10;1.10;;;;;;;-0.62;100.00;-23797.63;5031827;28;20173;-63
2024/01/10 02:56:51;;;;;;;1.30;1.20;;;;;;;-0.85;100.00;-23790.91;5032013;28;20639;-63
2024/01/10 02:59:17;;;;;;;1.63;1.53;;;;;;;-0.83;100.00;-23791.59;5031363;28;20177;-66
2024/01/10 03:01:43;;;;;;;1.30;1.30;;;;;;;-0.58;100.00;-23798.78;5031486;28;20177;-64
2024/01/10 03:04:08;;;;;;;3.20;1.83;;;;;;;-0.56;100.00;-23799.22;5031177;28;20177;-67
2024/01/10 03:06:34;;;;;;;1.60;1.50;;;;;;;-0.42;100.00;-23803.06;5032068;28;20181;-62
2024/01/10 03:08:59;;;;;;;5.00;1.97;;;;;;;-0.61;100.00;-23797.91;5036236;28;20694;-64
2024/01/10 03:11:25;;;;;;;1.57;1.47;;;;;;;-0.73;100.00;-23794.47;5031239;28;20181;-63
2024/01/10 03:14:00;;;;;;;1.30;1.20;;;;;;;-0.45;100.00;-23802.34;5031186;28;20609;-62
2024/01/10 03:16:26;;;;;;;1.10;1.10;;;;;;;-0.55;100.00;-23799.63;5029698;28;20556;-67
2024/01/10 03:18:51;;;;;;;1.47;1.37;;;;;;;-0.36;100.00;-23802.97;5031061;28;20183;-64
2024/01/10 03:21:22;;;;;;;1.73;1.63;;;;;;;-0.66;100.00;-23794.66;5031098;28;20323;-67
2024/01/10 03:23:48;;;;;;;1.20;1.20;;;;;;;-0.41;100.00;-23801.66;5031210;28;20207;-65
2024/01/10 03:26:13;;;;;;;1.50;1.40;;;;;;;-0.33;100.00;-23803.97;5031364;28;20609;-66
2024/01/10 03:28:39;;;;;;;1.63;1.53;;;;;;;-0.37;100.00;-23802.69;5030400;28;20208;-65
2024/01/10 03:31:04;;;;;;;1.33;1.30;;;;;;;-0.70;100.00;-23793.38;5030796;28;20220;-64
2024/01/10 03:33:30;;;;;;;2.50;2.30;;;;;;;-0.39;100.00;-23802.09;5031582;28;20232;-65
2024/01/10 03:35:55;;;;;;;1.20;1.20;;;;;;;-0.59;100.00;-23483.75;5031301;28;20173;-65
2024/01/10 03:38:20;;;;;;;1.60;1.50;;;;;;;-0.58;100.00;-23483.91;5030920;28;20178;-63
2024/01/10 03:40:46;;;;;;;1.53;1.43;;;;;;;-0.42;100.00;-23488.41;5030973;28;20260;-65
2024/01/10 03:43:12;;;;;;;1.20;1.20;;;;;;;-0.73;100.00;-23479.81;5030510;28;20199;-67
2024/01/10 03:45:37;;;;;;;1.60;1.50;;;;;;;-0.60;100.00;-23483.47;5029105;28;20556;-66
2024/01/10 03:48:03;;;;;;;1.57;1.47;;;;;;;-0.77;100.00;-23478.56;5031291;28;20177;-65
2024/01/10 03:50:29;;;;;;;1.67;1.57;;;;;;;-0.53;100.00;-23485.31;5030943;28;20523;-67
2024/01/10 03:52:54;;;;;;;1.83;1.73;;;;;;;-0.57;100.00;-23484.19;5030735;28;20176;-64
2024/01/10 03:55:19;;;;;;;1.57;1.47;;;;;;;-0.76;100.00;-23791.63;5030673;28;20175;-65
2024/01/10 03:57:45;;;;;;;1.50;1.40;;;;;;;-0.43;100.00;-23487.97;5030717;28;20196;-66
2024/01/10 04:00:11;;;;;;;1.10;1.10;;;;;;;-0.72;100.00;-23479.97;5030422;28;20239;-67
2024/01/10 04:02:38;;;;;;;1.57;1.50;;;;;;;-0.55;100.00;-23484.75;5030475;28;20177;-66
2024/01/10 04:05:13;;;;;;;1.87;1.77;;;;;;;-0.84;100.00;-23789.34;5030564;28;20203;-63
2024/01/10 04:07:44;;;;;;;4.87;1.60;;;;;;;-0.58;100.00;-23796.94;5030805;28;20533;-65
2024/01/10 04:10:11;;;;;;;2.60;2.40;;;;;;;-0.93;100.00;-23787.06;5030314;28;20202;-66
2024/01/10 04:12:37;;;;;;;1.20;1.20;;;;;;;-0.79;100.00;-23790.78;5036507;28;20641;-62
2024/01/10 04:15:04;;;;;;;1.83;1.73;;;;;;;-0.63;100.00;-23795.38;5030605;28;20208;-68
2024/01/10 04:17:29;;;;;;;1.40;1.40;;;;;;;-0.83;100.00;-23791.47;5030850;28;20241;-68
2024/01/10 04:19:54;;;;;;;1.93;1.83;;;;;;;-0.61;100.00;-23797.78;5030640;28;20177;-65
2024/01/10 04:22:20;;;;;;;1.90;1.80;;;;;;;-0.55;100.00;-23797.66;5030650;28;20238;-64
2024/01/10 04:24:45;;;;;;;1.83;1.73;;;;;;;-0.89;100.00;-23788.06;5029846;28;20201;-64
2024/01/10 04:27:11;;;;;;;1.50;1.43;;;;;;;-0.81;100.00;-23792.03;5038671;28;20620;-65
2024/01/10 04:29:36;;;;;;;1.40;1.30;;;;;;;-0.71;100.00;-23794.91;5028875;28;20639;-67
2024/01/10 04:32:02;;;;;;;1.43;1.37;;;;;;;-0.74;100.00;-23794.19;5030168;28;20735;-70
2024/01/10 04:34:28;;;;;;;1.70;1.60;;;;;;;-1.00;100.00;-23786.72;5030353;28;20202;-66
2024/01/10 04:36:53;;;;;;;1.80;1.70;;;;;;;-0.91;100.00;-23789.47;5030239;28;20629;-68
2024/01/10 04:39:18;;;;;;;1.70;1.60;;;;;;;-1.15;100.00;-23782.44;5031692;28;20173;-67
2024/01/10 04:41:44;;;;;;;2.23;2.13;;;;;;;-0.89;100.00;-23789.88;5034168;28;20259;-65
2024/01/10 04:44:09;;;;;;;1.77;1.67;;;;;;;-0.88;100.00;-23790.19;5033752;28;20527;-64
2024/01/10 04:46:35;;;;;;;1.33;1.30;;;;;;;-1.22;100.00;-23780.44;5033897;28;20263;-67
2024/01/10 04:49:00;;;;;;;1.50;1.40;;;;;;;-1.27;100.00;-23779.13;5033633;28;20531;-67
2024/01/10 04:51:25;;;;;;;1.47;1.40;;;;;;;-1.26;100.00;-23779.28;5033780;28;20616;-66
2024/01/10 04:53:51;;;;;;;1.67;1.57;;;;;;;-1.43;100.00;-23774.69;5033918;28;20179;-64
2024/01/10 04:56:17;;;;;;;1.70;1.60;;;;;;;-1.27;100.00;-23779.00;5033746;28;20250;-67
2024/01/10 04:58:43;;;;;;;1.20;1.20;;;;;;;-1.04;100.00;-23785.72;5033432;28;20218;-64
2024/01/10 05:01:08;;;;;;;1.93;1.83;;;;;;;-1.13;100.00;-23783.16;5033669;28;20199;-65
2024/01/10 05:03:33;;;;;;;1.67;1.57;;;;;;;-1.33;100.00;-23777.41;5033802;28;20203;-65
2024/01/10 05:05:59;;;;;;;1.47;1.37;;;;;;;-1.67;100.00;-23767.66;5033347;28;20172;-65
2024/01/10 05:08:24;;;;;;;1.33;1.33;;;;;;;-1.35;100.00;-23776.97;5033216;28;20229;-64
2024/01/10 05:10:50;;;;;;;1.60;1.50;;;;;;;-1.23;100.00;-23780.28;5033385;28;20573;-64
2024/01/10 05:13:15;;;;;;;1.90;1.80;;;;;;;-1.43;100.00;-23774.53;5032920;28;20259;-66
2024/01/10 05:15:41;;;;;;;1.83;1.73;;;;;;;-1.08;100.00;-23784.44;5033863;28;20663;-69
2024/01/10 05:18:06;;;;;;;2.93;2.23;;;;;;;-1.22;100.00;-23780.56;5039346;28;20176;-66
2024/01/10 05:20:32;;;;;;;1.93;1.83;;;;;;;-1.28;100.00;-23778.84;5033461;28;20562;-68
2024/01/10 05:22:58;;;;;;;1.53;1.43;;;;;;;-1.39;100.00;-23775.84;5033322;28;20176;-67
2024/01/10 05:25:24;;;;;;;1.57;1.47;;;;;;;-1.36;100.00;-23776.56;5033003;28;20186;-66
2024/01/10 05:27:50;;;;;;;1.70;1.60;;;;;;;-1.30;100.00;-23778.13;5032883;28;20179;-68
2024/01/10 05:30:15;;;;;;;1.97;1.87;;;;;;;-1.44;100.00;-23774.41;5033188;28;20204;-68
2024/01/10 05:32:43;;;;;;;1.70;1.60;;;;;;;-1.63;100.00;-23768.94;5033268;28;20222;-68
2024/01/10 05:35:10;;;;;;;1.70;1.60;;;;;;;-1.57;100.00;-23770.53;5033089;28;20172;-68
2024/01/10 05:37:36;;;;;;;2.20;1.60;;;;;;;-1.41;100.00;-23775.13;5032520;28;20219;-66
2024/01/10 05:40:01;;;;;;;1.80;1.70;;;;;;;-1.41;100.00;-23775.13;5038029;28;20661;-69
2024/01/10 05:42:27;;;;;;;1.80;1.70;;;;;;;-1.39;100.00;-23775.84;5035389;28;20188;-69
2024/01/10 05:44:53;;;;;;;2.00;1.90;;;;;;;-1.49;100.00;-23772.81;5031523;28;20184;-68
2024/01/10 05:47:18;;;;;;;1.20;1.20;;;;;;;-1.51;100.00;-23772.25;5032645;28;20179;-67
2024/01/10 05:49:43;;;;;;;2.70;2.50;;;;;;;-1.61;100.00;-23769.53;5032562;28;20199;-68
2024/01/10 05:52:09;;;;;;;1.90;1.80;;;;;;;-1.85;100.00;-23762.78;5032171;28;20167;-69
2024/01/10 05:54:34;;;;;;;1.50;1.40;;;;;;;-1.60;100.00;-23769.81;5032903;28;20272;-67
2024/01/10 05:57:02;;;;;;;1.73;1.63;;;;;;;-1.86;100.00;-23762.50;5032505;28;20555;-69
2024/01/10 05:59:28;;;;;;;3.43;1.93;;;;;;;-1.95;100.00;-23759.91;5032464;28;20183;-70
2024/01/10 06:01:53;;;;;;;2.43;2.23;;;;;;;-1.96;100.00;-23759.63;5032070;28;20249;-68
2024/01/10 06:04:19;;;;;;;1.83;1.73;;;;;;;-1.90;100.00;-23761.19;5032264;28;20266;-67
2024/01/10 06:06:45;;;;;;;1.90;1.70;;;;;;;-2.11;100.00;-23755.31;5055583;28;20187;-66
2024/01/10 06:09:11;;;;;;;2.03;1.93;;;;;;;-1.87;100.00;-23762.06;5021059;28;20288;-66
2024/01/10 06:11:45;;;;;;;1.80;1.70;;;;;;;-1.88;100.00;-23761.91;5022389;28;20508;-67
2024/01/10 06:14:10;;;;;;;1.40;1.33;;;;;;;-1.56;100.00;-23770.94;5023079;28;20183;-66
2024/01/10 06:16:36;;;;;;;2.17;2.07;;;;;;;-1.61;100.00;-23769.53;5029833;28;20179;-66
2024/01/10 06:19:01;;;;;;;1.30;1.30;;;;;;;-1.61;100.00;-23769.38;5030757;28;20186;-64
2024/01/10 06:21:27;;;;;;;1.67;1.57;;;;;;;-1.60;100.00;-23769.66;5037423;28;20195;-64
2024/01/10 06:23:52;;;;;;;1.43;1.33;;;;;;;-1.53;100.00;-23771.81;5032119;28;20171;-67
2024/01/10 06:26:18;;;;;;;1.50;1.40;;;;;;;-1.70;100.00;-23766.78;5031928;28;20183;-67
2024/01/10 06:28:43;;;;;;;1.60;1.50;;;;;;;-1.46;100.00;-23773.69;5032056;28;20168;-66
2024/01/10 06:31:08;;;;;;;1.40;1.33;;;;;;;-1.46;100.00;-23773.69;5031572;28;20700;-65
2024/01/10 06:33:34;;;;;;;2.20;2.00;;;;;;;-1.48;100.00;-23773.25;5031810;28;20255;-66
2024/01/10 06:35:59;;;;;;;2.03;1.93;;;;;;;-1.62;100.00;-23769.09;5031839;28;20184;-64
2024/01/10 06:38:25;;;;;;;1.73;1.63;;;;;;;-1.61;100.00;-23769.38;5031430;28;20670;-65
2024/01/10 06:40:51;;;;;;;1.50;1.40;;;;;;;-1.49;100.00;-23772.81;5031654;28;20640;-65
2024/01/10 06:43:16;;;;;;;1.27;1.17;;;;;;;-1.29;100.00;-23778.56;5031908;28;20182;-65
2024/01/10 06:45:42;;;;;;;1.33;1.30;;;;;;;-1.31;100.00;-23778.00;5031729;28;20611;-68
2024/01/10 06:48:08;;;;;;;1.73;1.63;;;;;;;-1.35;100.00;-23776.84;5031398;28;20176;-66
2024/01/10 06:50:33;;;;;;;1.67;1.57;;;;;;;-1.55;100.00;-23771.25;5029360;28;20284;-65
2024/01/10 06:52:59;;;;;;;3.03;2.77;;;;;;;-1.65;100.00;-23768.38;5030716;28;20254;-63
2024/01/10 06:55:25;;;;;;;1.60;1.50;;;;;;;-1.34;100.00;-23777.13;5030689;28;20271;-66
2024/01/10 06:57:52;;;;;;;1.53;1.47;;;;;;;-1.33;100.00;-23777.56;5031118;28;20639;-65
2024/01/10 07:00:22;;;;;;;1.80;1.70;;;;;;;-1.25;100.00;-23779.56;5031231;28;20160;-66
2024/01/10 07:02:48;;;;;;;1.60;1.50;;;;;;;-1.25;100.00;-23779.72;5030124;28;20171;-66
2024/01/10 07:05:14;;;;;;;2.03;1.90;;;;;;;-1.17;100.00;-23782.00;5031188;28;20250;-67
2024/01/10 07:07:40;;;;;;;2.13;2.03;;;;;;;-1.27;100.00;-23779.13;5028987;28;20262;-66
2024/01/10 07:10:06;;;;;;;2.67;2.03;;;;;;;-1.28;100.00;-23778.69;5030985;28;20209;-65
2024/01/10 07:12:34;;;;;;;1.27;1.27;;;;;;;-1.08;100.00;-23784.44;5031004;28;20608;-68
2024/01/10 07:15:00;;;;;;;1.50;1.40;;;;;;;-1.26;100.00;-23779.28;5031084;28;20503;-63
2024/01/10 07:17:25;;;;;;;1.33;1.33;;;;;;;-1.03;100.00;-23785.88;5031014;28;20168;-67
2024/01/10 07:19:51;;;;;;;2.30;2.10;;;;;;;-0.95;100.00;-23788.16;5031317;28;20160;-64
2024/01/10 07:22:18;;;;;;;1.87;1.77;;;;;;;-1.15;100.00;-23782.56;5031121;28;20619;-66
2024/01/10 07:24:43;;;;;;;1.63;1.50;;;;;;;-0.88;100.00;-23790.19;5036092;28;20214;-65
2024/01/10 07:27:08;;;;;;;1.60;1.50;;;;;;;-0.80;100.00;-23792.47;5030949;28;20182;-66
2024/01/10 07:29:35;;;;;;;1.97;1.73;;;;;;;-1.06;100.00;-23785.16;5030948;28;20201;-66
2024/01/10 07:32:00;;;;;;;2.20;2.10;;;;;;;-0.70;100.00;-23795.34;5030166;28;20267;-66
2024/01/10 07:34:25;;;;;;;2.03;1.93;;;;;;;-0.69;100.00;-23795.63;5030618;28;20249;-63
2024/01/10 07:36:51;;;;;;;1.83;1.73;;;;;;;-0.64;100.00;-23796.91;5030521;28;20208;-66
2024/01/10 07:39:18;;;;;;;1.40;1.37;;;;;;;-0.65;100.00;-23796.78;5030983;28;20171;-64
2024/01/10 07:41:44;;;;;;;1.20;1.20;;;;;;;-0.75;100.00;-23793.75;5030607;28;20210;-65
2024/01/10 07:44:09;;;;;;;1.80;1.70;;;;;;;-0.67;100.00;-23796.19;5030501;28;20173;-65
2024/01/10 07:46:37;;;;;;;2.17;2.03;;;;;;;-0.70;100.00;-23795.34;5030408;28;20193;-67
2024/01/10 07:49:04;;;;;;;1.40;1.40;;;;;;;-0.59;100.00;-23798.34;5030535;28;20200;-64
2024/01/10 07:51:30;;;;;;;1.50;1.40;;;;;;;-0.47;100.00;-23801.94;5029083;28;20678;-65
2024/01/10 07:53:55;;;;;;;1.80;1.70;;;;;;;-0.39;100.00;-23804.06;5030114;28;20182;-67
2024/01/10 07:56:22;;;;;;;1.07;1.07;;;;;;;-0.40;100.00;-23803.78;5030627;28;20168;-66
2024/01/10 07:58:48;;;;;;;1.30;1.30;;;;;;;-0.48;100.00;-23801.50;5030451;28;20224;-68
2024/01/10 08:01:15;;;;;;;1.80;1.70;;;;;;;-0.59;100.00;-23798.34;5030669;28;20174;-62
2024/01/10 08:03:41;;;;;;;2.53;2.33;;;;;;;-0.69;100.00;-23795.63;5030537;28;20174;-65
2024/01/10 08:06:06;;;;;;;2.00;1.87;;;;;;;-0.43;100.00;-23802.78;5030009;28;20210;-67
2024/01/10 08:08:31;;;;;;;1.50;1.40;;;;;;;-0.50;100.00;-23800.94;5031299;28;20261;-65
2024/01/10 08:10:57;;;;;;;1.83;1.73;;;;;;;-0.65;100.00;-23796.63;5030477;28;20609;-66
2024/01/10 08:13:22;;;;;;;2.00;1.90;;;;;;;-0.73;100.00;-23794.34;5030857;28;20642;-63
2024/01/10 08:15:48;;;;;;;1.63;1.53;;;;;;;-0.77;100.00;-23793.19;5034569;28;20181;-66
2024/01/10 08:18:14;;;;;;;1.43;1.37;;;;;;;-0.48;100.00;-23801.50;5034413;28;20174;-65
2024/01/10 08:20:40;;;;;;;2.53;2.03;;;;;;;-0.50;100.00;-23800.94;5066365;28;20251;-65
2024/01/10 08:23:05;;;;;;;2.03;1.33;;;;;;;-0.43;100.00;-23802.78;5034245;28;20180;-68
2024/01/10 08:25:30;;;;;;;1.90;1.80;;;;;;;-0.27;100.00;-23807.38;5034401;28;20232;-66
2024/01/10 08:27:57;;;;;;;2.10;1.60;;;;;;;-0.46;100.00;-23802.06;5040241;28;20201;-64
2024/01/10 08:30:23;;;;;;;2.40;2.20;;;;;;;-0.67;100.00;-23796.06;5066311;28;20674;-66
2024/01/10 08:32:49;;;;;;;1.60;1.50;;;;;;;-0.62;100.00;-23795.78;5034345;28;20225;-67
2024/01/10 08:35:15;;;;;;;2.20;1.77;;;;;;;-0.47;100.00;-23799.94;5034058;28;20303;-67
2024/01/10 08:37:42;;;;;;;1.30;1.30;;;;;;;-0.54;100.00;-23797.94;5034292;28;20174;-67
2024/01/10 08:40:11;;;;;;;1.83;1.73;;;;;;;-0.45;100.00;-23800.53;5034195;28;20166;-67
2024/01/10 08:42:40;;;;;;;1.50;1.40;;;;;;;-0.31;100.00;-23804.38;5034535;28;20202;-64
2024/01/10 08:45:09;;;;;;;1.30;1.30;;;;;;;-0.28;100.00;-23179.28;5034497;28;20261;-65
2024/01/10 08:47:34;;;;;;;5.17;2.07;;;;;;;-0.45;100.00;-22548.63;5034131;28;20175;-65
2024/01/10 08:50:02;;;;;;;2.37;1.80;;;;;;;-0.23;100.00;-21301.38;5033893;28;20871;-66
2024/01/10 08:52:27;;;;;;;1.40;1.40;;;;;;;-0.46;100.00;-21295.72;5034313;28;20239;-66
2024/01/10 08:54:52;;;;;;;1.50;1.40;;;;;;;-0.37;100.00;-21611.03;5033477;28;20568;-68
2024/01/10 08:57:18;;;;;;;2.00;1.63;;;;;;;-0.32;100.00;-22238.78;5033651;28;20182;-68
2024/01/10 08:59:43;;;;;;;1.27;1.27;;;;;;;-0.29;100.00;-20673.19;5033738;28;20179;-64
2024/01/10 09:02:09;;;;;;;2.00;1.90;;;;;;;-0.27;100.00;-19106.66;5033533;28;20175;-65
2024/01/10 09:04:34;;;;;;;1.90;1.80;;;;;;;0.05;100.00;-19740.50;5033783;28;20178;-65
2024/01/10 09:07:00;;;;;;;1.30;1.30;;;;;;;0.07;100.00;-19113.56;5033428;28;20632;-67
2024/01/10 09:09:25;;;;;;;1.30;1.30;;;;;;;0.04;100.00;-20367.28;5033493;28;20681;-67
2024/01/10 09:11:50;;;;;;;1.93;1.83;;;;;;;0.12;100.00;-20996.31;5034110;28;20167;-65
2024/01/10 09:14:16;;;;;;;1.60;1.50;;;;;;;0.11;100.00;-20682.44;5033569;28;20254;-66
2024/01/10 09:16:41;;;;;;;1.37;1.23;;;;;;;0.27;100.00;-20686.31;5033418;28;20193;-68
2024/01/10 09:19:07;;;;;;;5.20;2.23;;;;;;;0.38;100.00;-21629.66;5033130;28;20176;-67
2024/01/10 09:21:32;;;;;;;1.60;1.50;;;;;;;0.24;100.00;-21626.28;5033559;28;20266;-66
2024/01/10 09:23:57;;;;;;;5.60;1.80;;;;;;;0.65;100.00;-20695.00;5033497;28;20233;-64
2024/01/10 09:26:23;;;;;;;2.20;1.87;;;;;;;0.59;100.00;-17240.22;5032294;28;20616;-64
2024/01/10 09:28:48;;;;;;;2.00;1.90;;;;;;;0.42;100.00;-15038.31;5033133;28;20178;-66
2024/01/10 09:31:14;;;;;;;2.00;1.90;;;;;;;0.86;100.00;-15987.66;5038653;28;20682;-66
2024/01/10 09:33:40;;;;;;;2.07;1.90;;;;;;;1.10;100.00;-17249.16;5033329;28;20299;-63
2024/01/10 09:36:06;;;;;;;2.13;1.80;;;;;;;1.42;100.00;-17569.19;5033423;28;20262;-65
2024/01/10 09:38:36;;;;;;;1.27;1.27;;;;;;;1.50;100.00;-16941.56;5033172;28;20242;-63
2024/01/10 09:41:03;;;;;;;1.60;1.50;;;;;;;1.32;100.00;-17253.06;5033687;28;20254;-66
2024/01/10 09:43:30;;;;;;;2.20;1.97;;;;;;;2.02;100.00;-16950.31;5032960;28;20185;-64
2024/01/10 09:45:58;;;;;;;2.53;1.90;;;;;;;2.09;100.00;-15691.66;5032664;28;20176;-67
2024/01/10 09:48:25;;;;;;;1.50;1.40;;;;;;;2.39;100.00;-14750.34;5032919;28;20175;-66
2024/01/10 09:50:52;;;;;;;1.90;1.80;;;;;;;2.23;100.00;-16323.94;5032881;28;20203;-68
2024/01/10 09:53:24;;;;;;;3.00;2.80;;;;;;;2.49;100.00;-17588.44;5032709;28;20199;-66
2024/01/10 09:55:50;;;;;;;1.20;1.20;;;;;;;2.59;100.00;-16014.38;5032953;28;20651;-67
2024/01/10 09:58:16;;;;;;;2.80;2.60;;;;;;;2.60;100.00;-13175.75;5032752;28;20203;-68
2024/01/10 10:00:41;;;;;;;2.17;1.87;;;;;;;2.44;100.00;-12227.47;5032901;28;20179;-65
2024/01/10 10:03:12;;;;;;;1.53;1.43;;;;;;;2.43;100.00;-13489.41;5032783;28;20179;-64
2024/01/10 10:05:38;;;;;;;2.67;1.73;;;;;;;2.67;100.00;-15069.56;5032581;28;20175;-66
2024/01/10 10:08:07;;;;;;;1.80;1.70;;;;;;;2.55;100.00;-13490.78;5032619;28;20279;-67
2024/01/10 10:10:32;;;;;;;1.10;1.10;;;;;;;2.66;100.00;-2745.53;5032584;28;20203;-66
2024/01/10 10:12:58;;;;;;;1.70;1.60;;;;;;;2.27;100.00;-1798.72;5032381;28;20183;-67
2024/01/10 10:15:27;;;;;;;1.77;1.67;;;;;;;2.41;100.00;-7490.63;5032555;28;20183;-66
2024/01/10 10:17:54;;;;;;;3.97;2.10;;;;;;;2.15;100.00;-1799.69;5032482;28;20171;-64
2024/01/10 10:20:32;;;;;;;1.40;1.30;;;;;;;2.46;100.00;-3379.75;5032526;28;20175;-65
2024/01/10 10:23:06;;;;;;;3.33;1.63;;;;;;;2.35;100.00;-7174.56;5032483;28;20202;-68
2024/01/10 10:25:32;;;;;;;1.20;1.20;;;;;;;2.11;100.00;-217.63;5032029;28;20179;-64
2024/01/10 10:27:58;;;;;;;1.10;1.10;;;;;;;1.68;100.00;-4647.69;5032219;28;20635;-63
2024/01/10 10:30:24;;;;;;;1.20;1.20;;;;;;;2.04;100.00;-5910.66;5032414;28;20206;-66
2024/01/10 10:32:50;;;;;;;1.50;1.40;;;;;;;2.02;100.00;-7490.06;5035264;28;20223;-64
2024/01/10 10:35:15;;;;;;;1.70;1.60;;;;;;;1.98;100.00;-10961.72;5034656;28;20187;-63
2024/01/10 10:37:41;;;;;;;1.63;1.53;;;;;;;1.96;100.00;-7805.72;5031463;28;20175;-66
2024/01/10 10:40:09;;;;;;;1.40;1.33;;;;;;;2.15;100.00;-8121.94;5031642;28;20275;-66
2024/01/10 10:42:43;;;;;;;2.07;1.57;;;;;;;2.15;100.00;-10331.81;5032084;28;20574;-68
2024/01/10 10:45:12;;;;;;;1.97;1.80;;;;;;;2.09;100.00;-9068.97;5031726;28;20167;-66
2024/01/10 10:47:43;;;;;;;2.70;2.00;;;;;;;1.99;100.00;-4962.78;5031538;28;20176;-66
2024/01/10 10:50:18;;;;;;;1.57;1.47;;;;;;;1.93;100.00;-2117.69;5031765;28;20206;-66
2024/01/10 10:52:46;;;;;;;1.60;1.50;;;;;;;1.81;100.00;-2118.56;5030339;28;20183;-65
2024/01/10 10:55:15;;;;;;;1.37;1.37;;;;;;;1.46;100.00;-224.41;5031769;28;20250;-68
2024/01/10 10:57:44;;;;;;;1.20;1.20;;;;;;;1.89;100.00;4213.19;5031840;28;20294;-65
2024/01/10 11:00:10;;;;;;;1.37;1.33;;;;;;;1.82;100.00;1678.22;5031690;28;20191;-66
2024/01/10 11:02:37;;;;;;;1.17;1.17;;;;;;;1.67;100.00;94.16;5031034;28;20179;-64
2024/01/10 11:05:04;;;;;;;0.90;0.90;;;;;;;2.04;100.00;414.78;5031001;28;20586;-65
2024/01/10 11:07:30;;;;;;;1.40;1.30;;;;;;;2.08;100.00;-534.47;5031111;28;20536;-68
2024/01/10 11:09:58;;;;;;;1.20;1.20;;;;;;;2.12;100.00;-2116.31;5031256;28;20696;-63
2024/01/10 11:12:32;;;;;;;1.47;1.37;;;;;;;2.21;100.00;-2115.59;5031246;28;20171;-64
2024/01/10 11:15:14;;;;;;;1.43;1.37;;;;;;;2.22;100.00;-3697.28;5031197;28;20164;-65
2024/01/10 11:17:48;;;;;;;1.40;1.33;;;;;;;2.35;100.00;-3696.69;5029416;28;20203;-65